Airfield :
LOGIN :

Register | Disclaimer

   EN    FR    IT 

 










Legend :    VFR   Marginal VFR   IFR   Intensive IFR   Very Intensive IFR
Visi :
Ceiling :
>= 8 km
>= 3000ft
5 to 8 km
1000 to 3000 ft
1500m to 5 km
500 to 1000 ft
800 to 1500m
200 to 500 ft
< 800m
< 200 ft
Symbols :   Thunderstorms  Fog  Heavy snow  Heavy precipitations  Wind > 20 kt
SIGMETs :     Misc.  Thunderstorms  Icing  Turbulence  Mountain Waves  Volcanic Ashes







- Airport Elevation : 14 ft
- IATA code : BRE


EDDW - Bremen Neuenland

CURRENT METAR :
  • 141450Z 22010KT 9999 SCT017 BKN250 03/01 Q0989 R88/290095 TEMPO 24015G25KT

EXPIRED METARs :
  • 141420Z 24011KT 9999 BKN018 04/01 Q0989 R88/290095 TEMPO 24015G25KT
  • 141350Z 23015KT 9999 BKN018 04/01 Q0989 R88/290095 TEMPO 24015G25KT
  • 141320Z 23015KT 9999 BKN016 BKN250 04/01 Q0989 R88/290095 TEMPO 24015G25KT
  • 141250Z 24014KT 9999 BKN015 BKN250 04/02 Q0989 R88/290095 TEMPO 24015G25KT
  • 141220Z 24015KT 9999 BKN013 BKN250 04/01 Q0989 R88/290095 TEMPO 24015G25KT
  • 141150Z 24015KT 9999 BKN013 03/02 Q0989 R88/290095 TEMPO 24015G25KT

TAF TAF EDDW
Valid from the 14 at 12:00 until the 15 at 12:00 UTC


141100Z 1412/1512 24013KT 9999 SCT012 BKN020
TEMPO 1412/1418 24015G25KT 3500 SHRASN BKN009CB
BECMG 1419/1422 22007KT BKN012
BECMG 1508/1511 BKN025
TEMPO 1508/1512 25015G25KT 3500 SHRASN BKN009CB
No reported NOTAMs for that airfield.



MET'MAP, your aeronautical weather chart ! - Copyright ORBIFLY December 2007 - Disclaimer

ORBIFLY MET'MAP TEAM :

Programming & Development : Alexandra Zaïnal
Concept & Development : Baudouin d'Aumeries
Co-Development & Prog : Marc-Olivier Méhu
Technical & hardware support : Manuel Goepfert

Contact : metmap@orbifly.com




SOURCES & CREDITS :

   NOAA